Time;durP1;ratioP1;P1;durP2;ratioP2;P2;SDS_P1;SDS_P2;PMS_P1;PMS_P2;Temp;Humidity;BMP_temperature;BMP_pressure;BME280_temperature;BME280_humidity;BME280_pressure;Samples;Min_cycle;Max_cycle;Signal;HPM_P1;HPM_P2
2022/04/23 00:01:29;;;;;;;10.70;8.00;;;;;;;13.75;67.48;98510.88;5092567;28;20196;-57
2022/04/23 00:03:56;;;;;;;9.47;7.23;;;;;;;13.76;68.14;98504.84;5092314;28;20734;-57
2022/04/23 00:06:23;;;;;;;9.87;7.30;;;;;;;13.74;67.81;98499.69;5092524;28;20189;-57
2022/04/23 00:08:50;;;;;;;8.88;7.97;;;;;;;13.75;68.75;98501.41;5091994;28;20439;-57
2022/04/23 00:11:17;;;;;;;8.83;7.33;;;;;;;13.74;68.67;98504.84;5092349;28;20687;-57
2022/04/23 00:13:44;;;;;;;8.13;7.07;;;;;;;13.75;68.30;98505.69;5092447;28;20190;-57
2022/04/23 00:16:14;;;;;;;9.73;7.83;;;;;;;13.67;68.85;98515.25;5091115;28;20238;-60
2022/04/23 00:18:43;;;;;;;11.23;8.13;;;;;;;13.66;68.96;98513.53;5090717;28;20232;-60
2022/04/23 00:21:10;;;;;;;9.87;8.87;;;;;;;13.66;68.57;98510.97;5092130;28;20623;-59
2022/04/23 00:23:37;;;;;;;10.60;8.97;;;;;;;13.67;68.18;98502.34;5091976;28;20191;-59
2022/04/23 00:26:03;;;;;;;10.00;9.05;;;;;;;13.68;68.81;98507.50;5091800;28;20446;-59
2022/04/23 00:28:30;;;;;;;9.97;8.40;;;;;;;13.66;69.17;98504.06;5092179;28;20289;-59
2022/04/23 00:30:57;;;;;;;11.70;8.53;;;;;;;13.65;69.34;98504.09;5091892;28;20296;-59
2022/04/23 00:33:24;;;;;;;11.27;9.70;;;;;;;13.65;69.56;98509.28;5091817;28;20305;-59
2022/04/23 00:35:52;;;;;;;11.60;9.97;;;;;;;13.64;68.65;98518.72;5091959;28;20200;-60
2022/04/23 00:38:19;;;;;;;9.87;8.70;;;;;;;13.64;69.10;98516.16;5092007;28;20216;-60
2022/04/23 00:40:46;;;;;;;11.37;8.93;;;;;;;13.58;69.77;98500.72;5091566;28;20205;-57
2022/04/23 00:43:27;;;;;;;13.87;10.40;;;;;;;13.54;69.67;98504.25;5091631;28;20201;-57
2022/04/23 00:45:54;;;;;;;11.77;9.83;;;;;;;13.49;70.44;98509.44;5091560;28;20671;-57
2022/04/23 00:48:22;;;;;;;12.00;9.43;;;;;;;13.47;70.83;98508.59;5091494;28;20191;-57
2022/04/23 00:50:50;;;;;;;9.13;8.20;;;;;;;13.40;71.43;98506.97;5091463;28;20252;-57
2022/04/23 00:53:19;;;;;;;14.23;9.40;;;;;;;13.28;71.25;98494.19;5091520;28;20190;-57
2022/04/23 00:55:47;;;;;;;14.57;9.63;;;;;;;13.31;71.62;98501.03;5088804;28;20200;-57
2022/04/23 00:58:16;;;;;;;14.67;9.53;;;;;;;13.29;72.04;98501.06;5090665;28;20215;-57
2022/04/23 01:00:43;;;;;;;11.03;9.73;;;;;;;13.29;71.74;98501.06;5090634;28;20192;-57
2022/04/23 01:03:12;;;;;;;9.17;8.37;;;;;;;13.27;72.45;98518.28;5090733;28;20179;-57
2022/04/23 01:05:44;;;;;;;12.67;9.70;;;;;;;13.24;72.18;98520.06;5090894;28;20258;-57
2022/04/23 01:08:14;;;;;;;16.00;8.30;;;;;;;13.21;72.25;98517.50;5090613;28;20179;-57
2022/04/23 01:10:43;;;;;;;12.90;9.60;;;;;;;13.21;73.22;98509.75;5090006;28;20444;-57
2022/04/23 01:13:11;;;;;;;9.27;8.30;;;;;;;13.24;72.72;98512.31;5090365;28;20608;-57
2022/04/23 01:15:38;;;;;;;9.37;8.40;;;;;;;13.20;72.42;98514.06;5088532;28;20295;-57
2022/04/23 01:18:06;;;;;;;10.80;8.50;;;;;;;13.18;72.36;98507.22;5090180;28;20212;-60
2022/04/23 01:20:36;;;;;;;9.97;8.93;;;;;;;13.13;72.47;98509.81;5090398;28;20274;-57
2022/04/23 01:23:03;;;;;;;9.00;8.10;;;;;;;13.09;72.75;98508.16;5090360;28;20606;-57
2022/04/23 01:25:33;;;;;;;9.97;8.77;;;;;;;13.06;73.03;98512.44;5090383;28;20645;-56
2022/04/23 01:28:01;;;;;;;11.88;8.77;;;;;;;12.92;73.41;98508.28;5086505;28;20451;-57
2022/04/23 01:30:28;;;;;;;9.33;8.30;;;;;;;12.87;73.89;98522.94;5089822;28;20187;-57
2022/04/23 01:32:55;;;;;;;11.47;8.53;;;;;;;12.81;73.69;98537.56;5090023;28;20187;-57
2022/04/23 01:35:22;;;;;;;11.80;8.60;;;;;;;12.75;73.94;98532.47;5090033;28;20187;-57
2022/04/23 01:37:51;;;;;;;14.20;8.80;;;;;;;12.59;73.80;98530.88;5090149;28;20597;-59
2022/04/23 01:40:19;;;;;;;9.23;8.33;;;;;;;12.41;74.09;98501.78;5087578;28;20245;-57
2022/04/23 01:42:46;;;;;;;12.10;9.00;;;;;;;12.49;74.52;98536.97;5090058;28;20954;-57
2022/04/23 01:45:13;;;;;;;11.57;8.23;;;;;;;12.51;75.04;98512.03;5090302;28;20191;-59
2022/04/23 01:47:40;;;;;;;10.40;8.53;;;;;;;12.50;74.34;98528.38;5090406;28;20186;-60
2022/04/23 01:50:08;;;;;;;11.97;8.10;;;;;;;12.44;74.06;98537.84;5087601;28;20190;-60
2022/04/23 01:52:35;;;;;;;10.27;9.00;;;;;;;12.37;73.83;98533.59;5090122;28;20200;-59
2022/04/23 01:55:04;;;;;;;12.97;8.43;;;;;;;12.22;73.86;98540.59;5097121;28;20267;-60
2022/04/23 01:57:31;;;;;;;10.67;8.57;;;;;;;12.06;74.52;98534.63;5078219;28;20218;-60
2022/04/23 01:59:58;;;;;;;12.40;9.67;;;;;;;11.96;74.87;98535.56;5070302;28;20198;-60
2022/04/23 02:02:25;;;;;;;11.47;8.73;;;;;;;11.87;75.24;98540.72;5070107;28;20199;-60
2022/04/23 02:04:52;;;;;;;11.37;8.67;;;;;;;11.76;75.51;98550.22;5070014;28;20199;-60
2022/04/23 02:07:19;;;;;;;10.60;9.20;;;;;;;11.64;75.64;98545.09;5069894;28;20188;-59
2022/04/23 02:09:46;;;;;;;11.20;8.07;;;;;;;11.65;76.24;98546.78;5070180;28;20203;-59
2022/04/23 02:12:14;;;;;;;10.53;9.40;;;;;;;11.64;76.24;98543.38;5070089;28;20195;-60
2022/04/23 02:14:41;;;;;;;10.00;9.00;;;;;;;11.61;76.52;98542.53;5069805;28;20737;-60
2022/04/23 02:17:09;;;;;;;12.88;10.00;;;;;;;11.61;76.27;98558.81;5069674;28;20452;-60
2022/04/23 02:19:36;;;;;;;9.77;8.37;;;;;;;11.59;76.39;98552.81;5069636;28;20195;-60
2022/04/23 02:22:03;;;;;;;13.60;9.30;;;;;;;11.55;76.92;98547.69;5069769;28;20298;-60
2022/04/23 02:24:31;;;;;;;10.80;9.03;;;;;;;11.57;76.77;98545.97;5069739;28;20596;-60
2022/04/23 02:26:58;;;;;;;9.53;8.33;;;;;;;11.61;76.93;98565.69;5069852;28;20245;-60
2022/04/23 02:29:26;;;;;;;9.90;8.47;;;;;;;11.65;76.81;98575.94;5088441;28;20570;-59
2022/04/23 02:31:53;;;;;;;9.63;8.70;;;;;;;11.61;76.87;98566.56;5089882;28;20666;-60
2022/04/23 02:34:21;;;;;;;9.25;8.35;;;;;;;11.56;76.27;98573.44;5089863;28;20698;-59
2022/04/23 02:36:47;;;;;;;13.07;8.83;;;;;;;11.50;76.51;98576.00;5082850;28;20203;-59
2022/04/23 02:39:15;;;;;;;10.40;9.00;;;;;;;11.48;76.66;98576.88;5089720;28;20194;-57
2022/04/23 02:41:42;;;;;;;12.63;9.37;;;;;;;11.41;76.85;98583.72;5094020;28;20191;-57
2022/04/23 02:44:08;;;;;;;13.67;9.70;;;;;;;11.32;77.67;98590.63;5094428;28;20183;-57
2022/04/23 02:46:37;;;;;;;14.67;10.07;;;;;;;11.23;77.99;98589.75;5094056;28;20574;-57
2022/04/23 02:49:03;;;;;;;11.70;10.37;;;;;;;11.16;77.69;98593.19;5094057;28;20647;-57
2022/04/23 02:51:30;;;;;;;15.35;11.38;;;;;;;11.12;78.19;98591.47;5092856;28;20836;-57
2022/04/23 02:53:57;;;;;;;11.57;10.00;;;;;;;11.18;77.67;98601.75;5093749;28;20557;-57
2022/04/23 02:56:26;;;;;;;17.13;10.93;;;;;;;11.10;78.22;98595.75;5093596;28;20194;-57
2022/04/23 02:58:53;;;;;;;15.73;8.90;;;;;;;11.06;78.19;98590.63;5093533;28;20250;-62
2022/04/23 03:01:21;;;;;;;12.00;10.80;;;;;;;11.05;78.32;98589.75;5093608;28;20197;-58
2022/04/23 03:03:54;;;;;;;13.60;10.70;;;;;;;11.11;78.02;98601.75;5093187;28;21151;-57
2022/04/23 03:06:20;;;;;;;12.93;10.40;;;;;;;11.14;78.15;98600.06;5093431;28;20233;-57
2022/04/23 03:08:48;;;;;;;12.00;10.80;;;;;;;11.15;77.96;98609.47;5091852;28;20199;-57
2022/04/23 03:11:15;;;;;;;13.23;11.93;;;;;;;11.24;77.72;98617.19;5092663;28;20866;-57
2022/04/23 03:13:43;;;;;;;13.10;9.93;;;;;;;11.30;77.52;98618.03;5093815;28;20202;-57
2022/04/23 03:16:10;;;;;;;12.40;10.83;;;;;;;11.26;77.37;98619.78;5093225;28;20303;-57
2022/04/23 03:18:37;;;;;;;12.10;10.80;;;;;;;11.31;77.02;98635.19;5097786;28;20232;-57
2022/04/23 03:21:05;;;;;;;14.23;10.70;;;;;;;11.36;77.15;98641.19;5101462;28;20733;-57
2022/04/23 03:23:32;;;;;;;11.83;10.17;;;;;;;11.35;77.12;98647.16;5093108;28;20186;-57
2022/04/23 03:25:59;;;;;;;12.07;9.63;;;;;;;11.34;77.23;98638.63;5092086;28;20661;-57
2022/04/23 03:28:26;;;;;;;10.00;9.00;;;;;;;11.42;76.70;98654.03;5093352;28;20190;-57
2022/04/23 03:30:53;;;;;;;13.95;11.50;;;;;;;11.43;77.14;98641.16;5092023;28;20443;-57
2022/04/23 03:33:20;;;;;;;13.30;10.30;;;;;;;11.54;76.21;98636.00;5093002;28;20561;-57
2022/04/23 03:35:47;;;;;;;14.10;10.23;;;;;;;11.49;75.95;98646.31;5092806;28;20688;-57
2022/04/23 03:38:16;;;;;;;15.57;9.67;;;;;;;11.53;75.84;98649.75;5092883;28;20584;-57
2022/04/23 03:40:43;;;;;;;13.57;9.73;;;;;;;11.54;75.51;98641.16;5092485;28;20331;-57
2022/04/23 03:43:10;;;;;;;17.10;10.37;;;;;;;11.56;75.84;98642.03;5092151;28;20312;-57
2022/04/23 03:45:37;;;;;;;12.37;10.50;;;;;;;11.55;75.19;98622.28;5092907;28;20199;-57
2022/04/23 03:48:05;;;;;;;14.27;11.93;;;;;;;11.66;75.20;98618.84;5091790;28;20899;-57
2022/04/23 03:50:32;;;;;;;19.03;10.93;;;;;;;11.75;74.19;98630.88;5090199;28;20197;-57
2022/04/23 03:52:59;;;;;;;21.13;11.63;;;;;;;11.71;74.84;98617.16;5091470;28;20195;-57
2022/04/23 03:55:28;;;;;;;12.83;11.53;;;;;;;11.74;74.84;98618.84;5090608;28;21019;-56
2022/04/23 03:57:55;;;;;;;11.93;9.93;;;;;;;11.83;74.65;98621.41;5091504;28;20601;-57
2022/04/23 04:00:22;;;;;;;12.83;10.97;;;;;;;11.89;74.66;98617.97;5091891;28;20270;-57
2022/04/23 04:02:50;;;;;;;13.60;10.57;;;;;;;11.99;73.92;98619.63;5091900;28;20194;-57
2022/04/23 04:05:18;;;;;;;13.80;11.17;;;;;;;11.96;73.77;98627.38;5092208;28;20190;-61
2022/04/23 04:07:47;;;;;;;13.70;10.53;;;;;;;12.06;73.85;98617.03;5091808;28;20186;-58
2022/04/23 04:10:17;;;;;;;12.83;10.10;;;;;;;12.14;73.60;98620.41;5088404;28;20191;-57
2022/04/23 04:12:46;;;;;;;13.90;11.33;;;;;;;12.21;73.68;98626.41;5091633;28;20191;-57
2022/04/23 04:15:15;;;;;;;11.50;10.30;;;;;;;12.30;73.02;98628.97;5091379;28;20214;-57
2022/04/23 04:17:43;;;;;;;12.20;10.90;;;;;;;12.36;73.31;98622.03;5091610;28;20293;-57
2022/04/23 04:20:12;;;;;;;15.87;10.73;;;;;;;12.44;72.97;98620.28;5089581;28;20199;-57
2022/04/23 04:22:39;;;;;;;18.43;11.53;;;;;;;12.56;72.52;98608.19;5091615;28;20362;-56
2022/04/23 04:25:07;;;;;;;13.77;11.98;;;;;;;12.75;72.80;98604.63;5087873;28;20446;-56
2022/04/23 04:27:34;;;;;;;11.33;9.80;;;;;;;12.99;71.72;98607.06;5091334;28;20237;-57
2022/04/23 04:30:04;;;;;;;13.73;9.37;;;;;;;13.13;70.73;98612.97;5090729;28;20198;-57
2022/04/23 04:32:31;;;;;;;9.93;8.90;;;;;;;13.23;69.55;98617.19;5090548;28;20202;-57
2022/04/23 04:34:58;;;;;;;10.90;8.83;;;;;;;13.36;69.33;98621.38;5091661;28;20191;-57
2022/04/23 04:37:27;;;;;;;12.73;9.03;;;;;;;13.49;68.82;98622.09;5091174;28;20251;-57
2022/04/23 04:39:55;;;;;;;11.63;8.97;;;;;;;13.59;68.42;98622.03;5090933;28;20269;-57
2022/04/23 04:42:22;;;;;;;10.47;8.43;;;;;;;13.65;67.91;98617.69;5091554;28;20191;-57
2022/04/23 04:44:49;;;;;;;9.90;8.87;;;;;;;13.74;67.65;98612.41;5091435;28;20296;-57
2022/04/23 04:47:18;;;;;;;13.47;9.57;;;;;;;13.83;67.61;98607.16;5091828;28;20191;-57
2022/04/23 04:49:45;;;;;;;14.50;9.57;;;;;;;13.89;67.53;98600.19;5079210;28;20201;-57
2022/04/23 04:52:12;;;;;;;16.87;12.40;;;;;;;13.94;67.37;98608.75;5071213;28;20193;-57
2022/04/23 04:54:39;;;;;;;15.33;11.00;;;;;;;14.10;67.00;98602.53;5091191;28;20195;-57
2022/04/23 04:57:06;;;;;;;11.13;9.23;;;;;;;14.20;66.80;98598.13;5091600;28;20186;-57
2022/04/23 04:59:33;;;;;;;15.50;9.20;;;;;;;14.02;66.73;98554.41;5091129;28;20253;-57
2022/04/23 05:02:00;;;;;;;19.67;9.70;;;;;;;14.54;65.71;98616.63;5090036;28;20654;-57
2022/04/23 05:04:29;;;;;;;11.63;9.57;;;;;;;14.67;64.30;98625.91;5091062;28;20197;-57
2022/04/23 05:06:56;;;;;;;18.10;10.67;;;;;;;14.69;64.30;98624.19;5091011;28;20685;-57
2022/04/23 05:09:23;;;;;;;12.70;11.27;;;;;;;14.82;64.43;98619.66;5090650;28;20431;-57
2022/04/23 05:11:50;;;;;;;13.70;10.60;;;;;;;15.06;63.79;98621.88;5090861;28;20193;-57
2022/04/23 05:14:18;;;;;;;8.83;8.03;;;;;;;15.09;63.51;98614.94;5091219;28;20197;-57
2022/04/23 05:16:45;;;;;;;11.87;9.00;;;;;;;15.18;62.88;98621.69;5090940;28;20309;-58
2022/04/23 05:19:12;;;;;;;10.90;8.53;;;;;;;15.13;63.16;98623.50;5090800;28;20222;-57
2022/04/23 05:21:40;;;;;;;12.50;10.00;;;;;;;14.88;64.04;98625.63;5091026;28;20662;-57
2022/04/23 05:24:07;;;;;;;16.13;9.93;;;;;;;14.93;64.16;98625.53;5091090;28;20196;-57
2022/04/23 05:26:35;;;;;;;11.57;9.20;;;;;;;14.94;64.34;98635.03;5090849;28;20186;-57
2022/04/23 05:29:02;;;;;;;12.77;10.45;;;;;;;14.99;65.33;98633.22;5090041;28;20527;-57
2022/04/23 05:31:31;;;;;;;19.27;15.13;;;;;;;14.81;67.81;98634.31;5089879;28;20197;-57
2022/04/23 05:33:58;;;;;;;22.57;19.50;;;;;;;14.75;69.18;98640.44;5090498;28;20662;-57
2022/04/23 05:36:25;;;;;;;26.00;23.20;;;;;;;14.46;70.34;98636.53;5090758;28;20293;-57
2022/04/23 05:38:54;;;;;;;30.10;24.67;;;;;;;14.48;70.11;98656.31;5090407;28;20225;-57
2022/04/23 05:41:21;;;;;;;25.53;19.13;;;;;;;14.50;68.64;98651.97;5090535;28;20277;-57
2022/04/23 05:43:48;;;;;;;18.50;16.50;;;;;;;14.60;66.29;98658.75;5090271;28;20295;-57
2022/04/23 05:46:16;;;;;;;19.13;14.53;;;;;;;14.64;66.28;98663.00;5090483;28;20203;-57
2022/04/23 05:48:43;;;;;;;18.67;13.73;;;;;;;14.78;66.06;98665.41;5090514;28;20188;-57
2022/04/23 05:51:10;;;;;;;15.70;11.67;;;;;;;14.82;65.48;98667.09;5090270;28;20201;-57
2022/04/23 05:53:37;;;;;;;16.57;11.53;;;;;;;14.90;65.78;98672.13;5090203;28;20256;-57
2022/04/23 05:56:05;;;;;;;15.38;12.20;;;;;;;15.13;65.64;98664.91;5089395;28;20520;-57
2022/04/23 05:58:35;;;;;;;11.57;10.10;;;;;;;15.19;65.12;98670.81;5089474;28;20218;-57
2022/04/23 06:01:02;;;;;;;10.90;8.87;;;;;;;15.36;63.98;98668.84;5090086;28;20635;-57
2022/04/23 06:03:29;;;;;;;10.60;8.97;;;;;;;15.45;63.68;98677.31;5090374;28;20201;-57
2022/04/23 06:05:56;;;;;;;9.10;8.17;;;;;;;15.74;63.01;98669.97;5090268;28;20199;-57
2022/04/23 06:08:23;;;;;;;8.63;7.53;;;;;;;15.97;62.43;98670.38;5090215;28;20295;-57
2022/04/23 06:10:49;;;;;;;8.77;7.97;;;;;;;16.25;61.16;98675.91;5088812;28;20523;-57
2022/04/23 06:13:18;;;;;;;10.77;8.50;;;;;;;16.55;59.30;98672.72;5089737;28;20555;-57
2022/04/23 06:15:45;;;;;;;11.23;7.67;;;;;;;16.58;58.52;98674.41;5089236;28;20325;-57
2022/04/23 06:18:11;;;;;;;8.90;8.00;;;;;;;16.66;58.25;98673.34;5089766;28;20708;-57
2022/04/23 06:20:38;;;;;;;9.50;8.30;;;;;;;16.81;57.96;98685.16;5089816;28;20192;-57
2022/04/23 06:23:06;;;;;;;11.53;10.33;;;;;;;16.82;57.00;98682.50;5089803;28;20187;-58
2022/04/23 06:25:32;;;;;;;16.60;10.37;;;;;;;16.86;57.12;98689.34;5089878;28;20641;-58
2022/04/23 06:27:59;;;;;;;14.90;11.20;;;;;;;16.78;57.20;98690.41;5089562;28;20193;-57
2022/04/23 06:30:28;;;;;;;16.87;11.90;;;;;;;16.75;57.88;98685.28;5089809;28;20757;-58
2022/04/23 06:32:55;;;;;;;13.83;12.00;;;;;;;16.78;57.79;98691.25;5089781;28;20287;-57
2022/04/23 06:35:22;;;;;;;14.60;12.30;;;;;;;16.85;57.90;98679.84;5089451;28;20281;-57
2022/04/23 06:37:49;;;;;;;17.87;13.97;;;;;;;16.78;57.83;98662.72;5089665;28;20197;-57
2022/04/23 06:40:16;;;;;;;14.17;12.27;;;;;;;16.90;57.92;98684.94;5089692;28;20214;-57
2022/04/23 06:42:44;;;;;;;15.70;12.37;;;;;;;16.83;57.58;98684.22;5089550;28;20186;-57
2022/04/23 06:45:11;;;;;;;20.17;12.07;;;;;;;16.75;57.89;98682.69;5089969;28;20268;-57
2022/04/23 06:47:39;;;;;;;15.83;14.00;;;;;;;16.75;57.95;98683.53;5089615;28;20318;-57
2022/04/23 06:50:08;;;;;;;18.00;13.57;;;;;;;16.83;58.03;98694.59;5089663;28;20183;-57
2022/04/23 06:52:35;;;;;;;21.60;15.67;;;;;;;16.81;57.85;98696.34;5089785;28;20197;-57
2022/04/23 06:55:02;;;;;;;19.03;14.13;;;;;;;16.83;58.26;98705.00;5089406;28;20229;-57
2022/04/23 06:57:29;;;;;;;14.80;11.37;;;;;;;16.79;58.32;98699.88;5089552;28;20278;-57
2022/04/23 06:59:55;;;;;;;14.17;9.93;;;;;;;16.79;58.26;98694.69;5089497;28;20236;-57
2022/04/23 07:02:22;;;;;;;12.73;8.13;;;;;;;16.75;58.38;98698.25;5087597;28;20191;-57
2022/04/23 07:04:51;;;;;;;9.37;7.53;;;;;;;16.70;58.56;98695.72;5089304;28;20274;-57
2022/04/23 07:07:17;;;;;;;9.67;7.67;;;;;;;16.70;58.68;98693.13;5088916;28;20205;-57
2022/04/23 07:09:44;;;;;;;8.90;7.20;;;;;;;16.75;58.82;98696.50;5089494;28;20207;-57
2022/04/23 07:12:13;;;;;;;8.47;7.63;;;;;;;16.82;59.23;98698.09;5088916;28;20682;-57
2022/04/23 07:14:40;;;;;;;8.67;7.37;;;;;;;16.89;59.06;98699.63;5089230;28;20303;-58
2022/04/23 07:17:07;;;;;;;9.33;7.10;;;;;;;16.99;59.58;98703.75;5089243;28;20191;-57
2022/04/23 07:19:39;;;;;;;8.63;7.17;;;;;;;17.05;59.18;98698.44;5088969;28;20228;-57
2022/04/23 07:22:07;;;;;;;9.80;7.37;;;;;;;17.22;59.45;98705.00;5088055;28;20191;-57
2022/04/23 07:24:34;;;;;;;8.37;7.57;;;;;;;17.30;58.72;98703.94;5087843;28;20187;-57
2022/04/23 07:27:01;;;;;;;9.40;8.27;;;;;;;17.42;58.18;98707.94;5089307;28;20618;-56
2022/04/23 07:29:28;;;;;;;11.07;8.30;;;;;;;17.49;57.76;98709.53;5091425;28;20183;-56
2022/04/23 07:31:56;;;;;;;9.63;7.87;;;;;;;17.62;57.98;98706.63;5090999;28;20191;-56
2022/04/23 07:39:53;;;;;;;9.13;6.90;;;;;;;17.90;57.42;98708.53;5092697;28;20225;-57
2022/04/23 07:42:20;;;;;;;7.80;7.00;;;;;;;17.83;57.15;98704.38;5092853;28;20295;-57
2022/04/23 07:44:47;;;;;;;8.03;7.23;;;;;;;17.89;57.24;98699.88;5092368;28;20191;-57
2022/04/23 07:47:14;;;;;;;9.93;7.60;;;;;;;17.95;57.28;98710.13;5092383;28;20699;-58
2022/04/23 07:49:41;;;;;;;8.80;7.17;;;;;;;18.02;57.15;98708.22;5092305;28;20623;-58
2022/04/23 07:52:09;;;;;;;9.17;7.33;;;;;;;17.95;57.12;98704.91;5092555;28;20356;-58
2022/04/23 07:54:38;;;;;;;8.47;7.47;;;;;;;18.04;56.48;98709.03;5092427;28;20205;-58
2022/04/23 07:57:07;;;;;;;8.70;7.33;;;;;;;18.10;55.95;98712.31;5092453;28;20222;-58
2022/04/23 07:59:33;;;;;;;10.53;8.33;;;;;;;18.22;55.97;98706.78;5091966;28;20329;-58
2022/04/23 08:02:02;;;;;;;8.00;7.20;;;;;;;18.34;55.42;98710.81;5091974;28;20194;-58
2022/04/23 08:04:29;;;;;;;10.33;7.53;;;;;;;18.42;54.44;98697.59;5091647;28;20248;-58
2022/04/23 08:06:56;;;;;;;8.37;7.07;;;;;;;18.47;54.12;98708.72;5089738;28;20304;-58
2022/04/23 08:09:24;;;;;;;9.07;7.30;;;;;;;18.36;53.74;98693.41;5091881;28;20205;-58
2022/04/23 08:11:51;;;;;;;7.93;7.17;;;;;;;18.39;53.27;98713.28;5091899;28;20226;-58
2022/04/23 08:14:18;;;;;;;9.17;7.07;;;;;;;18.34;53.88;98716.00;5091640;28;20200;-58
2022/04/23 08:16:48;;;;;;;9.80;6.33;;;;;;;18.39;53.45;98718.47;5091670;28;20721;-58
2022/04/23 08:19:16;;;;;;;10.23;7.07;;;;;;;18.50;52.08;98716.47;5091577;28;20210;-58
2022/04/23 08:21:43;;;;;;;7.40;6.50;;;;;;;18.59;52.20;98718.81;5091905;28;20191;-58
2022/04/23 08:24:10;;;;;;;6.73;6.13;;;;;;;18.60;52.88;98716.16;5091770;28;20205;-58
2022/04/23 08:26:38;;;;;;;11.97;6.60;;;;;;;18.72;52.95;98721.03;5091731;28;20274;-58
2022/04/23 08:32:00;;;;;;;8.87;6.33;;;;;;;18.84;52.98;98709.41;5067581;28;20195;-58
2022/04/23 08:34:27;;;;;;;6.67;5.93;;;;;;;18.90;52.27;98718.78;5085701;28;20197;-58
2022/04/23 08:36:54;;;;;;;7.27;6.50;;;;;;;18.97;51.89;98708.13;5091092;28;20190;-58
2022/04/23 08:39:21;;;;;;;9.95;6.28;;;;;;;19.02;51.31;98702.78;5090228;28;20447;-58
2022/04/23 08:41:49;;;;;;;7.93;5.97;;;;;;;19.23;51.35;98702.97;5093565;28;20235;-58
2022/04/23 08:44:16;;;;;;;5.97;5.33;;;;;;;19.35;51.54;98700.00;5091112;28;20202;-58
2022/04/23 08:46:44;;;;;;;7.07;5.63;;;;;;;19.51;50.73;98691.69;5104591;28;20210;-58
2022/04/23 08:49:16;;;;;;;13.43;6.80;;;;;;;19.68;50.79;98692.00;5091076;28;20194;-58
2022/04/23 08:51:45;;;;;;;7.17;5.57;;;;;;;19.82;49.88;98685.44;5091201;28;20665;-58
2022/04/23 08:54:13;;;;;;;7.30;6.03;;;;;;;19.91;48.89;98684.28;5091111;28;20191;-59
2022/04/23 08:56:43;;;;;;;5.80;5.20;;;;;;;19.84;47.79;98681.03;5090986;28;20666;-58
2022/04/23 08:59:13;;;;;;;6.50;5.13;;;;;;;19.76;47.25;98683.03;5091012;28;20218;-58
2022/04/23 09:01:41;;;;;;;7.10;5.30;;;;;;;19.68;47.97;98681.59;5091264;28;20199;-60
2022/04/23 09:04:09;;;;;;;8.90;5.87;;;;;;;19.61;48.81;98664.47;5091166;28;20191;-58
2022/04/23 09:06:42;;;;;;;9.90;5.87;;;;;;;19.66;48.97;98680.78;5091176;28;20213;-58
2022/04/23 09:09:14;;;;;;;6.23;5.67;;;;;;;19.72;48.93;98676.22;5109630;28;20664;-58
2022/04/23 09:11:44;;;;;;;6.20;5.60;;;;;;;19.55;47.65;98651.63;5110713;28;20205;-58
2022/04/23 09:14:25;;;;;;;6.60;5.43;;;;;;;19.72;48.40;98675.38;5111152;28;20197;-58
2022/04/23 09:25:15;;;;;;;7.40;6.17;;;;;;;20.05;49.84;98679.44;5109365;28;20205;-58
2022/04/23 09:27:43;;;;;;;6.65;6.05;;;;;;;20.13;49.71;98666.97;5108263;28;20430;-58
2022/04/23 09:30:13;;;;;;;9.50;6.27;;;;;;;20.27;49.23;98664.75;5109016;28;20258;-58
2022/04/23 09:33:00;;;;;;;6.20;5.60;;;;;;;20.39;49.05;98664.31;5109520;28;20289;-59
2022/04/23 09:35:27;;;;;;;9.43;5.60;;;;;;;20.47;48.12;98662.25;5110807;28;20186;-60
2022/04/23 09:38:12;;;;;;;6.67;5.13;;;;;;;20.45;47.52;98669.31;5110355;28;20661;-61
2022/04/23 09:40:39;;;;;;;7.40;5.00;;;;;;;20.45;47.03;98665.84;5098502;28;20218;-62
2022/04/23 09:43:07;;;;;;;6.68;5.15;;;;;;;20.53;46.54;98662.03;5089288;28;20917;-62
2022/04/23 09:45:41;;;;;;;7.27;5.00;;;;;;;20.59;46.03;98646.16;5090189;28;20198;-62
2022/04/23 09:48:19;;;;;;;9.00;4.90;;;;;;;20.74;46.31;98647.31;5085333;28;20221;-62
2022/04/23 09:50:47;;;;;;;7.63;4.67;;;;;;;20.89;45.46;98645.91;5089958;28;20190;-61
2022/04/23 09:53:15;;;;;;;7.77;5.10;;;;;;;20.98;44.31;98638.56;5086856;28;20202;-61
2022/04/23 09:55:43;;;;;;;7.17;4.77;;;;;;;21.03;44.57;98638.38;5088465;28;20286;-61
2022/04/23 09:58:11;;;;;;;4.93;4.43;;;;;;;21.10;44.58;98632.00;5090158;28;20210;-61
2022/04/23 10:00:40;;;;;;;7.77;5.20;;;;;;;21.23;45.16;98627.16;5091054;28;20195;-62
2022/04/23 10:03:07;;;;;;;7.60;4.80;;;;;;;;;;5089478;28;20514;-61
2022/04/23 10:05:38;;;;;;;9.10;4.70;;;;;;;21.42;42.77;98609.81;5092149;28;20205;-60
2022/04/23 10:08:12;;;;;;;6.10;4.00;;;;;;;21.59;41.42;98623.03;5089755;28;20614;-61
2022/04/23 10:10:44;;;;;;;6.77;4.30;;;;;;;21.59;41.58;98612.59;5089827;28;20187;-61
2022/04/23 10:13:12;;;;;;;5.90;4.10;;;;;;;21.65;40.79;98612.28;5089669;28;20217;-60
2022/04/23 10:15:46;;;;;;;5.67;4.07;;;;;;;21.71;41.14;98609.44;5089365;28;20333;-59
2022/04/23 10:18:14;;;;;;;7.77;4.00;;;;;;;21.84;41.53;98610.59;5089609;28;20191;-60
2022/04/23 10:20:52;;;;;;;9.23;5.37;;;;;;;21.99;41.14;98606.50;5089198;28;20227;-60
2022/04/23 10:23:27;;;;;;;9.17;4.83;;;;;;;22.04;40.83;98604.53;5089218;28;20668;-60
2022/04/23 10:26:11;;;;;;;9.53;3.90;;;;;;;22.12;39.80;98611.13;5102729;28;20287;-60
2022/04/23 10:28:44;;;;;;;7.37;4.20;;;;;;;22.14;39.42;98608.47;5109527;28;20213;-59
2022/04/23 10:31:15;;;;;;;5.97;4.07;;;;;;;22.21;39.59;98609.88;5109548;28;20198;-60
2022/04/23 10:33:46;;;;;;;6.43;3.27;;;;;;;22.21;37.87;98610.72;5109702;28;20285;-60
2022/04/23 10:36:14;;;;;;;4.23;3.67;;;;;;;22.26;39.70;98605.28;5109781;28;20221;-59
2022/04/23 10:38:44;;;;;;;7.43;3.40;;;;;;;22.38;39.09;98603.88;5087714;28;20579;-57
2022/04/23 10:41:12;;;;;;;13.35;4.35;;;;;;;22.47;39.07;98606.09;5088878;28;20451;-58
2022/04/23 10:43:50;;;;;;;5.17;3.77;;;;;;;22.38;38.25;98593.41;5089279;28;20202;-56
2022/04/23 10:46:47;;;;;;;8.83;4.23;;;;;;;22.37;39.26;98596.94;5089325;28;20194;-56
2022/04/23 10:49:15;;;;;;;4.63;3.87;;;;;;;22.43;38.43;98594.91;5089431;28;20209;-57
2022/04/23 10:51:49;;;;;;;12.47;3.70;;;;;;;22.27;38.44;98596.53;5089218;28;20195;-57
2022/04/23 10:54:19;;;;;;;6.20;3.67;;;;;;;22.30;38.56;98591.16;5089581;28;20256;-56
2022/04/23 10:56:54;;;;;;;9.23;3.77;;;;;;;22.38;38.31;98583.78;5087431;28;20190;-57
2022/04/23 10:59:38;;;;;;;7.70;4.37;;;;;;;22.54;37.71;98597.88;5088206;28;20194;-57
2022/04/23 11:02:13;;;;;;;9.80;4.10;;;;;;;22.64;36.51;98587.84;5090051;28;20302;-60
2022/04/23 11:13:28;;;;;;;10.40;4.30;;;;;;;22.90;36.79;98584.84;5092924;28;20195;-61
2022/04/23 11:16:17;;;;;;;6.27;3.80;;;;;;;22.89;36.97;98584.00;5092771;28;20226;-60
2022/04/23 11:18:47;;;;;;;8.87;4.10;;;;;;;22.90;37.38;98580.47;5090070;28;20560;-62
2022/04/23 11:21:21;;;;;;;8.27;4.00;;;;;;;23.00;36.61;98580.84;5093075;28;20592;-61
2022/04/23 11:23:48;;;;;;;10.93;4.20;;;;;;;23.00;36.63;98565.13;5092829;28;20191;-61
2022/04/23 11:26:17;;;;;;;6.43;3.83;;;;;;;23.21;34.52;98585.03;5093094;28;20282;-61
2022/04/23 11:28:44;;;;;;;8.73;3.90;;;;;;;23.12;34.89;98584.66;5092907;28;20229;-61
2022/04/23 11:31:13;;;;;;;13.20;4.40;;;;;;;23.12;34.39;98579.41;5092409;28;20606;-61
2022/04/23 11:34:00;;;;;;;7.30;3.53;;;;;;;23.22;33.99;98584.13;5092546;28;20201;-61
2022/04/23 11:36:29;;;;;;;9.93;3.83;;;;;;;23.23;33.72;98583.22;5092493;28;20300;-61
2022/04/23 11:38:56;;;;;;;5.87;2.73;;;;;;;22.99;31.19;98578.31;5092332;28;20199;-61
2022/04/23 11:41:28;;;;;;;7.67;3.47;;;;;;;23.04;32.21;98571.94;5092075;28;20225;-60
2022/04/23 11:43:55;;;;;;;8.33;4.13;;;;;;;23.31;33.30;98578.44;5092182;28;20514;-61
2022/04/23 11:46:22;;;;;;;9.88;3.45;;;;;;;23.44;31.27;98576.06;5091211;28;20440;-60
2022/04/23 11:48:51;;;;;;;6.13;3.13;;;;;;;23.63;31.30;98574.19;5092180;28;20186;-60
2022/04/23 11:51:20;;;;;;;7.90;3.37;;;;;;;23.76;31.88;98579.69;5092244;28;20193;-61
2022/04/23 11:53:57;;;;;;;10.20;3.70;;;;;;;23.89;31.74;98572.88;5091753;28;20187;-61
2022/04/23 11:56:30;;;;;;;10.70;3.70;;;;;;;23.95;32.53;98572.56;5091922;28;20217;-61
2022/04/23 11:58:58;;;;;;;8.43;3.70;;;;;;;23.81;32.72;98564.56;5091917;28;20239;-61